sensor_id;sensor_type;location;lat;lon;timestamp;P1;durP1;ratioP1;P2;durP2;ratioP2
34767;SDS011;21755;43.608;1.236;2024-02-23T00:00:53;13.15;;;2.13;;
34767;SDS011;21755;43.608;1.236;2024-02-23T00:03:19;7.97;;;1.90;;
34767;SDS011;21755;43.608;1.236;2024-02-23T00:05:45;21.15;;;3.03;;
34767;SDS011;21755;43.608;1.236;2024-02-23T00:08:11;12.93;;;2.50;;
34767;SDS011;21755;43.608;1.236;2024-02-23T00:10:37;7.57;;;2.08;;
34767;SDS011;21755;43.608;1.236;2024-02-23T00:13:03;9.25;;;1.90;;
34767;SDS011;21755;43.608;1.236;2024-02-23T00:15:29;11.20;;;2.17;;
34767;SDS011;21755;43.608;1.236;2024-02-23T00:17:55;10.23;;;2.33;;
34767;SDS011;21755;43.608;1.236;2024-02-23T00:20:21;12.00;;;3.50;;
34767;SDS011;21755;43.608;1.236;2024-02-23T00:22:47;15.88;;;2.40;;
34767;SDS011;21755;43.608;1.236;2024-02-23T00:25:13;7.07;;;2.17;;
34767;SDS011;21755;43.608;1.236;2024-02-23T00:27:39;12.63;;;1.98;;
34767;SDS011;21755;43.608;1.236;2024-02-23T00:30:07;15.85;;;3.03;;
34767;SDS011;21755;43.608;1.236;2024-02-23T00:32:33;8.07;;;2.65;;
34767;SDS011;21755;43.608;1.236;2024-02-23T00:34:59;10.27;;;2.28;;
34767;SDS011;21755;43.608;1.236;2024-02-23T00:37:24;10.23;;;1.90;;
34767;SDS011;21755;43.608;1.236;2024-02-23T00:39:50;8.88;;;1.67;;
34767;SDS011;21755;43.608;1.236;2024-02-23T00:42:16;13.57;;;2.30;;
34767;SDS011;21755;43.608;1.236;2024-02-23T00:44:42;10.35;;;1.85;;
34767;SDS011;21755;43.608;1.236;2024-02-23T00:47:08;16.55;;;2.40;;
34767;SDS011;21755;43.608;1.236;2024-02-23T00:49:34;9.27;;;1.70;;
34767;SDS011;21755;43.608;1.236;2024-02-23T00:52:00;9.57;;;2.10;;
34767;SDS011;21755;43.608;1.236;2024-02-23T00:54:26;10.98;;;2.25;;
34767;SDS011;21755;43.608;1.236;2024-02-23T00:56:52;10.43;;;2.15;;
34767;SDS011;21755;43.608;1.236;2024-02-23T00:59:17;17.27;;;2.45;;
34767;SDS011;21755;43.608;1.236;2024-02-23T01:01:43;9.57;;;1.88;;
34767;SDS011;21755;43.608;1.236;2024-02-23T01:04:10;9.73;;;2.00;;
34767;SDS011;21755;43.608;1.236;2024-02-23T01:06:36;14.55;;;2.35;;
34767;SDS011;21755;43.608;1.236;2024-02-23T01:09:02;11.73;;;1.90;;
34767;SDS011;21755;43.608;1.236;2024-02-23T01:11:29;9.60;;;1.85;;
34767;SDS011;21755;43.608;1.236;2024-02-23T01:13:55;10.00;;;1.88;;
34767;SDS011;21755;43.608;1.236;2024-02-23T01:16:22;11.00;;;2.22;;
34767;SDS011;21755;43.608;1.236;2024-02-23T01:18:47;10.77;;;2.15;;
34767;SDS011;21755;43.608;1.236;2024-02-23T01:21:13;13.93;;;2.15;;
34767;SDS011;21755;43.608;1.236;2024-02-23T01:23:39;13.90;;;2.42;;
34767;SDS011;21755;43.608;1.236;2024-02-23T01:26:05;9.73;;;2.17;;
34767;SDS011;21755;43.608;1.236;2024-02-23T01:28:31;8.48;;;2.33;;
34767;SDS011;21755;43.608;1.236;2024-02-23T01:30:57;13.18;;;2.60;;
34767;SDS011;21755;43.608;1.236;2024-02-23T01:33:22;14.00;;;2.22;;
34767;SDS011;21755;43.608;1.236;2024-02-23T01:35:49;12.52;;;1.88;;
34767;SDS011;21755;43.608;1.236;2024-02-23T01:38:15;17.70;;;2.92;;
34767;SDS011;21755;43.608;1.236;2024-02-23T01:40:45;8.60;;;2.03;;
34767;SDS011;21755;43.608;1.236;2024-02-23T01:43:12;10.65;;;1.70;;
34767;SDS011;21755;43.608;1.236;2024-02-23T01:45:38;10.98;;;2.20;;
34767;SDS011;21755;43.608;1.236;2024-02-23T01:48:04;21.15;;;4.53;;
34767;SDS011;21755;43.608;1.236;2024-02-23T01:50:30;13.00;;;1.67;;
34767;SDS011;21755;43.608;1.236;2024-02-23T01:52:58;13.68;;;2.65;;
34767;SDS011;21755;43.608;1.236;2024-02-23T01:55:26;17.10;;;2.58;;
34767;SDS011;21755;43.608;1.236;2024-02-23T01:57:52;11.95;;;1.90;;
34767;SDS011;21755;43.608;1.236;2024-02-23T02:00:19;14.40;;;2.05;;
34767;SDS011;21755;43.608;1.236;2024-02-23T02:02:47;12.15;;;2.30;;
34767;SDS011;21755;43.608;1.236;2024-02-23T02:05:13;14.73;;;3.35;;
34767;SDS011;21755;43.608;1.236;2024-02-23T02:07:40;7.80;;;2.08;;
34767;SDS011;21755;43.608;1.236;2024-02-23T02:10:09;10.65;;;1.70;;
34767;SDS011;21755;43.608;1.236;2024-02-23T02:12:35;12.63;;;2.10;;
34767;SDS011;21755;43.608;1.236;2024-02-23T02:15:02;9.05;;;2.03;;
34767;SDS011;21755;43.608;1.236;2024-02-23T02:17:29;16.80;;;1.65;;
34767;SDS011;21755;43.608;1.236;2024-02-23T02:19:54;14.00;;;1.90;;
34767;SDS011;21755;43.608;1.236;2024-02-23T02:22:21;12.45;;;1.92;;
34767;SDS011;21755;43.608;1.236;2024-02-23T02:24:47;9.13;;;1.90;;
34767;SDS011;21755;43.608;1.236;2024-02-23T02:27:13;15.35;;;1.83;;
34767;SDS011;21755;43.608;1.236;2024-02-23T02:29:39;9.35;;;2.25;;
34767;SDS011;21755;43.608;1.236;2024-02-23T02:32:05;11.40;;;2.03;;
34767;SDS011;21755;43.608;1.236;2024-02-23T02:34:31;10.75;;;2.22;;
34767;SDS011;21755;43.608;1.236;2024-02-23T02:36:57;15.98;;;3.25;;
34767;SDS011;21755;43.608;1.236;2024-02-23T02:39:23;11.23;;;1.85;;
34767;SDS011;21755;43.608;1.236;2024-02-23T02:41:49;11.95;;;1.75;;
34767;SDS011;21755;43.608;1.236;2024-02-23T02:44:15;15.10;;;2.35;;
34767;SDS011;21755;43.608;1.236;2024-02-23T02:46:41;11.65;;;1.85;;
34767;SDS011;21755;43.608;1.236;2024-02-23T02:49:07;9.32;;;1.70;;
34767;SDS011;21755;43.608;1.236;2024-02-23T02:51:33;8.15;;;1.77;;
34767;SDS011;21755;43.608;1.236;2024-02-23T02:53:59;15.82;;;2.22;;
34767;SDS011;21755;43.608;1.236;2024-02-23T02:56:25;13.43;;;2.03;;
34767;SDS011;21755;43.608;1.236;2024-02-23T02:58:51;12.43;;;1.60;;
34767;SDS011;21755;43.608;1.236;2024-02-23T03:01:16;8.02;;;1.58;;
34767;SDS011;21755;43.608;1.236;2024-02-23T03:03:42;11.90;;;1.58;;
34767;SDS011;21755;43.608;1.236;2024-02-23T03:06:08;8.07;;;1.45;;
34767;SDS011;21755;43.608;1.236;2024-02-23T03:08:34;11.98;;;1.70;;
34767;SDS011;21755;43.608;1.236;2024-02-23T03:11:00;10.32;;;1.77;;
34767;SDS011;21755;43.608;1.236;2024-02-23T03:13:26;10.00;;;1.38;;
34767;SDS011;21755;43.608;1.236;2024-02-23T03:15:52;5.60;;;1.23;;
34767;SDS011;21755;43.608;1.236;2024-02-23T03:18:18;3.53;;;1.08;;
34767;SDS011;21755;43.608;1.236;2024-02-23T03:20:44;8.20;;;1.30;;
34767;SDS011;21755;43.608;1.236;2024-02-23T03:23:10;8.60;;;1.48;;
34767;SDS011;21755;43.608;1.236;2024-02-23T03:25:36;7.18;;;1.20;;
34767;SDS011;21755;43.608;1.236;2024-02-23T03:28:02;11.35;;;1.52;;
34767;SDS011;21755;43.608;1.236;2024-02-23T03:30:28;8.15;;;1.45;;
34767;SDS011;21755;43.608;1.236;2024-02-23T03:32:54;7.20;;;1.38;;
34767;SDS011;21755;43.608;1.236;2024-02-23T03:35:20;4.00;;;1.48;;
34767;SDS011;21755;43.608;1.236;2024-02-23T03:37:46;7.00;;;1.35;;
34767;SDS011;21755;43.608;1.236;2024-02-23T03:40:12;10.13;;;2.20;;
34767;SDS011;21755;43.608;1.236;2024-02-23T03:42:38;4.95;;;0.95;;
34767;SDS011;21755;43.608;1.236;2024-02-23T03:45:04;5.78;;;1.23;;
34767;SDS011;21755;43.608;1.236;2024-02-23T03:47:30;9.60;;;1.33;;
34767;SDS011;21755;43.608;1.236;2024-02-23T03:49:56;6.40;;;1.00;;
34767;SDS011;21755;43.608;1.236;2024-02-23T03:52:22;14.10;;;1.40;;
34767;SDS011;21755;43.608;1.236;2024-02-23T03:54:48;5.90;;;1.80;;
34767;SDS011;21755;43.608;1.236;2024-02-23T03:57:15;4.68;;;1.13;;
34767;SDS011;21755;43.608;1.236;2024-02-23T03:59:50;6.68;;;1.35;;
34767;SDS011;21755;43.608;1.236;2024-02-23T04:02:17;6.13;;;0.85;;
34767;SDS011;21755;43.608;1.236;2024-02-23T04:04:43;6.22;;;1.35;;
34767;SDS011;21755;43.608;1.236;2024-02-23T04:07:09;6.43;;;1.38;;
34767;SDS011;21755;43.608;1.236;2024-02-23T04:09:35;3.38;;;0.88;;
34767;SDS011;21755;43.608;1.236;2024-02-23T04:12:01;7.05;;;0.82;;
34767;SDS011;21755;43.608;1.236;2024-02-23T04:14:27;8.32;;;1.52;;
34767;SDS011;21755;43.608;1.236;2024-02-23T04:16:53;4.07;;;1.13;;
34767;SDS011;21755;43.608;1.236;2024-02-23T04:19:19;5.65;;;0.80;;
34767;SDS011;21755;43.608;1.236;2024-02-23T04:21:45;9.43;;;1.25;;
34767;SDS011;21755;43.608;1.236;2024-02-23T04:24:11;6.20;;;1.45;;
34767;SDS011;21755;43.608;1.236;2024-02-23T04:26:37;4.95;;;1.00;;
34767;SDS011;21755;43.608;1.236;2024-02-23T04:29:03;10.10;;;1.33;;
34767;SDS011;21755;43.608;1.236;2024-02-23T04:31:29;6.35;;;0.85;;
34767;SDS011;21755;43.608;1.236;2024-02-23T04:33:54;4.35;;;1.08;;
34767;SDS011;21755;43.608;1.236;2024-02-23T04:36:20;4.40;;;0.95;;
34767;SDS011;21755;43.608;1.236;2024-02-23T04:38:46;2.95;;;0.70;;
34767;SDS011;21755;43.608;1.236;2024-02-23T04:41:13;9.90;;;1.05;;
34767;SDS011;21755;43.608;1.236;2024-02-23T04:43:39;7.78;;;0.80;;
34767;SDS011;21755;43.608;1.236;2024-02-23T04:46:05;6.32;;;0.80;;
34767;SDS011;21755;43.608;1.236;2024-02-23T04:48:30;5.47;;;0.77;;
34767;SDS011;21755;43.608;1.236;2024-02-23T04:50:57;2.60;;;0.40;;
34767;SDS011;21755;43.608;1.236;2024-02-23T04:53:23;6.22;;;0.57;;
34767;SDS011;21755;43.608;1.236;2024-02-23T04:55:49;2.40;;;0.70;;
34767;SDS011;21755;43.608;1.236;2024-02-23T04:58:15;2.35;;;0.40;;
34767;SDS011;21755;43.608;1.236;2024-02-23T05:00:41;4.47;;;0.60;;
34767;SDS011;21755;43.608;1.236;2024-02-23T05:03:07;3.20;;;0.60;;
34767;SDS011;21755;43.608;1.236;2024-02-23T05:05:35;4.95;;;0.50;;
34767;SDS011;21755;43.608;1.236;2024-02-23T05:08:01;1.73;;;0.50;;
34767;SDS011;21755;43.608;1.236;2024-02-23T05:10:27;2.95;;;0.47;;
34767;SDS011;21755;43.608;1.236;2024-02-23T05:12:53;2.65;;;0.40;;
34767;SDS011;21755;43.608;1.236;2024-02-23T05:15:20;1.77;;;0.40;;
34767;SDS011;21755;43.608;1.236;2024-02-23T05:17:46;3.60;;;0.50;;
34767;SDS011;21755;43.608;1.236;2024-02-23T05:20:12;2.58;;;0.47;;
34767;SDS011;21755;43.608;1.236;2024-02-23T05:22:39;1.73;;;0.40;;
34767;SDS011;21755;43.608;1.236;2024-02-23T05:25:05;3.53;;;0.55;;
34767;SDS011;21755;43.608;1.236;2024-02-23T05:27:31;3.85;;;0.80;;
34767;SDS011;21755;43.608;1.236;2024-02-23T05:29:57;2.58;;;0.65;;
34767;SDS011;21755;43.608;1.236;2024-02-23T05:32:24;3.13;;;0.45;;
34767;SDS011;21755;43.608;1.236;2024-02-23T05:34:49;3.45;;;0.65;;
34767;SDS011;21755;43.608;1.236;2024-02-23T05:37:18;3.08;;;0.70;;
34767;SDS011;21755;43.608;1.236;2024-02-23T05:39:44;4.68;;;0.40;;
34767;SDS011;21755;43.608;1.236;2024-02-23T05:42:11;1.38;;;0.47;;
34767;SDS011;21755;43.608;1.236;2024-02-23T05:44:37;3.47;;;0.65;;
34767;SDS011;21755;43.608;1.236;2024-02-23T05:47:04;0.98;;;0.40;;
34767;SDS011;21755;43.608;1.236;2024-02-23T05:49:30;2.35;;;0.52;;
34767;SDS011;21755;43.608;1.236;2024-02-23T05:51:56;4.05;;;0.60;;
34767;SDS011;21755;43.608;1.236;2024-02-23T05:54:22;4.38;;;0.75;;
34767;SDS011;21755;43.608;1.236;2024-02-23T05:56:48;1.63;;;0.32;;
34767;SDS011;21755;43.608;1.236;2024-02-23T05:59:14;5.07;;;0.63;;
34767;SDS011;21755;43.608;1.236;2024-02-23T06:01:40;6.60;;;0.55;;
34767;SDS011;21755;43.608;1.236;2024-02-23T06:04:06;4.22;;;0.90;;
34767;SDS011;21755;43.608;1.236;2024-02-23T06:06:32;4.70;;;0.80;;
34767;SDS011;21755;43.608;1.236;2024-02-23T06:08:58;3.80;;;0.90;;
34767;SDS011;21755;43.608;1.236;2024-02-23T06:11:25;3.88;;;0.90;;
34767;SDS011;21755;43.608;1.236;2024-02-23T06:13:51;3.28;;;0.70;;
34767;SDS011;21755;43.608;1.236;2024-02-23T06:16:17;1.80;;;0.57;;
34767;SDS011;21755;43.608;1.236;2024-02-23T06:18:43;3.95;;;0.80;;
34767;SDS011;21755;43.608;1.236;2024-02-23T06:21:15;7.18;;;0.75;;
34767;SDS011;21755;43.608;1.236;2024-02-23T06:23:42;3.78;;;0.60;;
34767;SDS011;21755;43.608;1.236;2024-02-23T06:26:08;4.05;;;0.70;;
34767;SDS011;21755;43.608;1.236;2024-02-23T06:28:35;3.83;;;1.00;;
34767;SDS011;21755;43.608;1.236;2024-02-23T06:31:03;3.22;;;0.60;;
34767;SDS011;21755;43.608;1.236;2024-02-23T06:33:29;9.27;;;1.95;;
34767;SDS011;21755;43.608;1.236;2024-02-23T06:35:56;1.73;;;0.57;;
34767;SDS011;21755;43.608;1.236;2024-02-23T06:38:22;2.70;;;0.57;;
34767;SDS011;21755;43.608;1.236;2024-02-23T06:40:47;5.35;;;0.80;;
34767;SDS011;21755;43.608;1.236;2024-02-23T06:43:13;2.75;;;0.82;;
34767;SDS011;21755;43.608;1.236;2024-02-23T06:45:39;6.20;;;1.17;;
34767;SDS011;21755;43.608;1.236;2024-02-23T06:48:05;4.35;;;0.82;;
34767;SDS011;21755;43.608;1.236;2024-02-23T06:50:31;3.50;;;0.70;;
34767;SDS011;21755;43.608;1.236;2024-02-23T06:52:57;5.60;;;1.10;;
34767;SDS011;21755;43.608;1.236;2024-02-23T06:55:23;4.82;;;0.90;;
34767;SDS011;21755;43.608;1.236;2024-02-23T06:57:49;1.30;;;0.47;;
34767;SDS011;21755;43.608;1.236;2024-02-23T07:00:15;2.72;;;0.50;;
34767;SDS011;21755;43.608;1.236;2024-02-23T07:02:41;2.67;;;0.88;;
34767;SDS011;21755;43.608;1.236;2024-02-23T07:05:07;2.10;;;0.60;;
34767;SDS011;21755;43.608;1.236;2024-02-23T07:07:34;1.35;;;0.43;;
34767;SDS011;21755;43.608;1.236;2024-02-23T07:10:00;1.52;;;0.40;;
34767;SDS011;21755;43.608;1.236;2024-02-23T07:12:26;1.60;;;0.43;;
34767;SDS011;21755;43.608;1.236;2024-02-23T07:14:55;2.38;;;0.40;;
34767;SDS011;21755;43.608;1.236;2024-02-23T07:17:21;1.40;;;0.40;;
34767;SDS011;21755;43.608;1.236;2024-02-23T07:19:47;1.23;;;0.30;;
34767;SDS011;21755;43.608;1.236;2024-02-23T07:22:13;1.23;;;0.30;;
34767;SDS011;21755;43.608;1.236;2024-02-23T07:24:41;2.75;;;0.30;;
34767;SDS011;21755;43.608;1.236;2024-02-23T07:27:07;2.60;;;0.40;;
34767;SDS011;21755;43.608;1.236;2024-02-23T07:29:33;1.17;;;0.40;;
34767;SDS011;21755;43.608;1.236;2024-02-23T07:31:59;1.92;;;0.73;;
34767;SDS011;21755;43.608;1.236;2024-02-23T07:34:25;4.70;;;0.75;;
34767;SDS011;21755;43.608;1.236;2024-02-23T07:36:52;1.02;;;0.32;;
34767;SDS011;21755;43.608;1.236;2024-02-23T07:39:18;0.70;;;0.25;;
34767;SDS011;21755;43.608;1.236;2024-02-23T07:41:47;3.70;;;0.50;;
34767;SDS011;21755;43.608;1.236;2024-02-23T07:44:13;3.05;;;0.60;;
34767;SDS011;21755;43.608;1.236;2024-02-23T07:46:39;1.08;;;0.20;;
34767;SDS011;21755;43.608;1.236;2024-02-23T07:49:06;3.78;;;0.57;;
34767;SDS011;21755;43.608;1.236;2024-02-23T07:51:32;0.60;;;0.30;;
34767;SDS011;21755;43.608;1.236;2024-02-23T07:53:58;5.50;;;0.60;;
34767;SDS011;21755;43.608;1.236;2024-02-23T07:56:24;3.65;;;0.65;;
34767;SDS011;21755;43.608;1.236;2024-02-23T07:58:50;4.25;;;0.80;;
34767;SDS011;21755;43.608;1.236;2024-02-23T08:01:16;3.45;;;0.40;;
34767;SDS011;21755;43.608;1.236;2024-02-23T08:03:42;3.88;;;0.40;;
34767;SDS011;21755;43.608;1.236;2024-02-23T08:06:08;1.77;;;0.50;;
34767;SDS011;21755;43.608;1.236;2024-02-23T08:08:34;4.00;;;0.60;;
34767;SDS011;21755;43.608;1.236;2024-02-23T08:11:03;2.65;;;0.60;;
34767;SDS011;21755;43.608;1.236;2024-02-23T08:13:30;3.58;;;0.60;;
34767;SDS011;21755;43.608;1.236;2024-02-23T08:15:57;3.22;;;0.70;;
34767;SDS011;21755;43.608;1.236;2024-02-23T08:18:23;1.45;;;0.60;;
34767;SDS011;21755;43.608;1.236;2024-02-23T08:20:49;4.05;;;0.95;;
34767;SDS011;21755;43.608;1.236;2024-02-23T08:23:15;2.03;;;0.82;;
34767;SDS011;21755;43.608;1.236;2024-02-23T08:25:41;4.82;;;0.95;;
34767;SDS011;21755;43.608;1.236;2024-02-23T08:28:06;2.65;;;0.73;;
34767;SDS011;21755;43.608;1.236;2024-02-23T08:30:32;5.05;;;0.90;;
34767;SDS011;21755;43.608;1.236;2024-02-23T08:32:58;3.30;;;0.98;;
34767;SDS011;21755;43.608;1.236;2024-02-23T08:35:25;3.63;;;0.90;;
34767;SDS011;21755;43.608;1.236;2024-02-23T08:37:51;5.43;;;1.70;;
34767;SDS011;21755;43.608;1.236;2024-02-23T08:40:17;6.35;;;1.08;;
34767;SDS011;21755;43.608;1.236;2024-02-23T08:42:43;6.00;;;0.77;;
34767;SDS011;21755;43.608;1.236;2024-02-23T08:45:09;3.00;;;0.85;;
34767;SDS011;21755;43.608;1.236;2024-02-23T08:47:37;4.78;;;0.90;;
34767;SDS011;21755;43.608;1.236;2024-02-23T08:50:04;3.80;;;0.80;;
34767;SDS011;21755;43.608;1.236;2024-02-23T08:52:31;2.78;;;0.90;;
34767;SDS011;21755;43.608;1.236;2024-02-23T08:54:57;4.20;;;0.77;;
34767;SDS011;21755;43.608;1.236;2024-02-23T08:57:22;4.50;;;0.65;;
34767;SDS011;21755;43.608;1.236;2024-02-23T08:59:49;2.70;;;0.55;;
34767;SDS011;21755;43.608;1.236;2024-02-23T09:02:15;2.85;;;0.38;;
34767;SDS011;21755;43.608;1.236;2024-02-23T09:04:41;2.33;;;0.47;;
34767;SDS011;21755;43.608;1.236;2024-02-23T09:07:07;4.45;;;0.82;;
34767;SDS011;21755;43.608;1.236;2024-02-23T09:09:33;2.42;;;0.85;;
34767;SDS011;21755;43.608;1.236;2024-02-23T09:11:58;4.75;;;0.75;;
34767;SDS011;21755;43.608;1.236;2024-02-23T09:14:24;24.23;;;11.02;;
34767;SDS011;21755;43.608;1.236;2024-02-23T09:16:50;5.13;;;1.00;;
34767;SDS011;21755;43.608;1.236;2024-02-23T09:19:17;6.35;;;2.40;;
34767;SDS011;21755;43.608;1.236;2024-02-23T09:21:43;6.07;;;1.20;;
34767;SDS011;21755;43.608;1.236;2024-02-23T09:24:10;6.28;;;0.75;;
34767;SDS011;21755;43.608;1.236;2024-02-23T09:26:36;3.67;;;0.93;;
34767;SDS011;21755;43.608;1.236;2024-02-23T09:29:02;3.33;;;0.70;;
34767;SDS011;21755;43.608;1.236;2024-02-23T09:31:27;2.42;;;0.50;;
34767;SDS011;21755;43.608;1.236;2024-02-23T09:33:55;8.13;;;1.38;;
34767;SDS011;21755;43.608;1.236;2024-02-23T09:36:21;2.50;;;0.80;;
34767;SDS011;21755;43.608;1.236;2024-02-23T09:38:47;5.60;;;0.98;;
34767;SDS011;21755;43.608;1.236;2024-02-23T09:41:22;4.15;;;1.00;;
34767;SDS011;21755;43.608;1.236;2024-02-23T09:43:50;4.03;;;0.75;;
34767;SDS011;21755;43.608;1.236;2024-02-23T09:46:17;3.47;;;1.00;;
34767;SDS011;21755;43.608;1.236;2024-02-23T09:48:44;2.35;;;0.77;;
34767;SDS011;21755;43.608;1.236;2024-02-23T09:51:14;4.70;;;1.23;;
34767;SDS011;21755;43.608;1.236;2024-02-23T09:53:41;3.53;;;0.80;;
34767;SDS011;21755;43.608;1.236;2024-02-23T09:56:10;2.40;;;0.60;;
34767;SDS011;21755;43.608;1.236;2024-02-23T09:58:36;2.63;;;0.57;;
34767;SDS011;21755;43.608;1.236;2024-02-23T10:01:02;4.22;;;0.52;;
34767;SDS011;21755;43.608;1.236;2024-02-23T10:03:29;4.28;;;0.50;;
34767;SDS011;21755;43.608;1.236;2024-02-23T10:05:56;3.03;;;0.60;;
34767;SDS011;21755;43.608;1.236;2024-02-23T10:08:22;2.83;;;0.50;;
34767;SDS011;21755;43.608;1.236;2024-02-23T10:10:48;5.57;;;0.73;;
34767;SDS011;21755;43.608;1.236;2024-02-23T10:13:18;6.25;;;0.70;;
34767;SDS011;21755;43.608;1.236;2024-02-23T10:15:49;4.38;;;0.70;;
34767;SDS011;21755;43.608;1.236;2024-02-23T10:18:16;2.20;;;0.50;;
34767;SDS011;21755;43.608;1.236;2024-02-23T10:20:42;2.33;;;0.55;;
34767;SDS011;21755;43.608;1.236;2024-02-23T10:23:08;3.17;;;0.70;;
34767;SDS011;21755;43.608;1.236;2024-02-23T10:25:35;2.42;;;0.60;;
34767;SDS011;21755;43.608;1.236;2024-02-23T10:28:02;5.88;;;1.92;;
34767;SDS011;21755;43.608;1.236;2024-02-23T10:30:28;2.88;;;0.50;;
34767;SDS011;21755;43.608;1.236;2024-02-23T10:32:56;3.13;;;0.70;;
34767;SDS011;21755;43.608;1.236;2024-02-23T10:35:24;2.08;;;1.13;;
34767;SDS011;21755;43.608;1.236;2024-02-23T10:37:51;2.80;;;0.60;;
34767;SDS011;21755;43.608;1.236;2024-02-23T10:40:19;3.15;;;0.57;;
34767;SDS011;21755;43.608;1.236;2024-02-23T10:42:47;2.75;;;0.50;;
34767;SDS011;21755;43.608;1.236;2024-02-23T10:45:19;3.40;;;0.55;;
34767;SDS011;21755;43.608;1.236;2024-02-23T10:47:49;2.00;;;0.57;;
34767;SDS011;21755;43.608;1.236;2024-02-23T10:50:16;3.22;;;0.60;;
34767;SDS011;21755;43.608;1.236;2024-02-23T10:52:45;2.03;;;0.70;;
34767;SDS011;21755;43.608;1.236;2024-02-23T10:55:12;3.72;;;0.68;;
34767;SDS011;21755;43.608;1.236;2024-02-23T10:57:39;2.47;;;0.50;;
34767;SDS011;21755;43.608;1.236;2024-02-23T11:00:06;1.80;;;0.50;;
34767;SDS011;21755;43.608;1.236;2024-02-23T11:02:41;2.42;;;0.45;;
34767;SDS011;21755;43.608;1.236;2024-02-23T11:05:11;1.73;;;0.70;;
34767;SDS011;21755;43.608;1.236;2024-02-23T11:07:40;3.95;;;1.08;;
34767;SDS011;21755;43.608;1.236;2024-02-23T11:10:06;3.95;;;0.80;;
34767;SDS011;21755;43.608;1.236;2024-02-23T11:12:34;4.43;;;0.70;;
34767;SDS011;21755;43.608;1.236;2024-02-23T11:15:01;2.70;;;1.15;;
34767;SDS011;21755;43.608;1.236;2024-02-23T11:17:28;4.88;;;1.27;;
34767;SDS011;21755;43.608;1.236;2024-02-23T11:19:56;5.75;;;2.03;;
34767;SDS011;21755;43.608;1.236;2024-02-23T11:22:32;4.15;;;1.67;;
34767;SDS011;21755;43.608;1.236;2024-02-23T11:25:00;3.20;;;2.13;;
34767;SDS011;21755;43.608;1.236;2024-02-23T11:27:32;2.40;;;0.60;;
34767;SDS011;21755;43.608;1.236;2024-02-23T11:30:02;3.83;;;1.13;;
34767;SDS011;21755;43.608;1.236;2024-02-23T11:32:36;2.28;;;0.73;;
34767;SDS011;21755;43.608;1.236;2024-02-23T11:35:05;6.05;;;0.75;;
34767;SDS011;21755;43.608;1.236;2024-02-23T11:40:11;4.43;;;0.93;;
34767;SDS011;21755;43.608;1.236;2024-02-23T11:42:44;4.55;;;0.93;;
34767;SDS011;21755;43.608;1.236;2024-02-23T11:45:11;5.85;;;0.73;;
34767;SDS011;21755;43.608;1.236;2024-02-23T11:47:37;2.72;;;0.60;;
34767;SDS011;21755;43.608;1.236;2024-02-23T11:50:04;0.70;;;0.50;;
34767;SDS011;21755;43.608;1.236;2024-02-23T11:52:39;2.28;;;1.00;;
34767;SDS011;21755;43.608;1.236;2024-02-23T11:55:05;3.17;;;0.60;;
34767;SDS011;21755;43.608;1.236;2024-02-23T11:57:35;1.77;;;0.60;;
34767;SDS011;21755;43.608;1.236;2024-02-23T12:00:03;1.10;;;0.40;;
34767;SDS011;21755;43.608;1.236;2024-02-23T12:02:31;1.40;;;0.40;;
34767;SDS011;21755;43.608;1.236;2024-02-23T12:04:58;1.55;;;0.30;;
34767;SDS011;21755;43.608;1.236;2024-02-23T12:07:24;2.30;;;0.30;;
34767;SDS011;21755;43.608;1.236;2024-02-23T12:09:51;1.73;;;0.20;;
34767;SDS011;21755;43.608;1.236;2024-02-23T12:12:17;2.70;;;0.20;;
34767;SDS011;21755;43.608;1.236;2024-02-23T12:14:44;2.78;;;0.52;;
34767;SDS011;21755;43.608;1.236;2024-02-23T12:17:09;0.75;;;0.40;;
34767;SDS011;21755;43.608;1.236;2024-02-23T12:19:38;0.73;;;0.20;;
34767;SDS011;21755;43.608;1.236;2024-02-23T12:22:05;1.45;;;0.25;;
34767;SDS011;21755;43.608;1.236;2024-02-23T12:24:31;2.35;;;0.57;;
34767;SDS011;21755;43.608;1.236;2024-02-23T12:26:57;2.97;;;0.40;;
34767;SDS011;21755;43.608;1.236;2024-02-23T12:29:23;1.27;;;0.30;;
34767;SDS011;21755;43.608;1.236;2024-02-23T12:31:49;2.13;;;0.47;;
34767;SDS011;21755;43.608;1.236;2024-02-23T12:34:16;0.90;;;0.40;;
34767;SDS011;21755;43.608;1.236;2024-02-23T12:36:42;1.35;;;0.20;;
34767;SDS011;21755;43.608;1.236;2024-02-23T12:39:11;4.85;;;0.40;;
34767;SDS011;21755;43.608;1.236;2024-02-23T12:41:37;0.47;;;0.20;;
34767;SDS011;21755;43.608;1.236;2024-02-23T12:44:02;2.30;;;0.30;;
34767;SDS011;21755;43.608;1.236;2024-02-23T12:46:28;0.38;;;0.30;;
34767;SDS011;21755;43.608;1.236;2024-02-23T12:48:54;0.88;;;0.45;;
34767;SDS011;21755;43.608;1.236;2024-02-23T12:51:24;1.60;;;0.35;;
34767;SDS011;21755;43.608;1.236;2024-02-23T12:53:51;4.20;;;0.30;;
34767;SDS011;21755;43.608;1.236;2024-02-23T12:56:17;3.03;;;0.40;;
34767;SDS011;21755;43.608;1.236;2024-02-23T12:58:43;1.30;;;0.60;;
34767;SDS011;21755;43.608;1.236;2024-02-23T13:01:10;2.63;;;0.85;;
34767;SDS011;21755;43.608;1.236;2024-02-23T13:03:36;0.40;;;0.20;;
34767;SDS011;21755;43.608;1.236;2024-02-23T13:06:04;5.57;;;0.50;;
34767;SDS011;21755;43.608;1.236;2024-02-23T13:08:30;4.95;;;0.38;;
34767;SDS011;21755;43.608;1.236;2024-02-23T13:10:56;2.15;;;0.20;;
34767;SDS011;21755;43.608;1.236;2024-02-23T13:13:22;3.63;;;0.30;;
34767;SDS011;21755;43.608;1.236;2024-02-23T13:15:49;0.70;;;0.15;;
34767;SDS011;21755;43.608;1.236;2024-02-23T13:18:15;1.23;;;0.38;;
34767;SDS011;21755;43.608;1.236;2024-02-23T13:20:41;0.77;;;0.40;;
34767;SDS011;21755;43.608;1.236;2024-02-23T13:23:08;1.77;;;0.40;;
34767;SDS011;21755;43.608;1.236;2024-02-23T13:25:37;1.08;;;0.25;;
34767;SDS011;21755;43.608;1.236;2024-02-23T13:28:05;2.20;;;0.73;;
34767;SDS011;21755;43.608;1.236;2024-02-23T13:30:33;3.33;;;0.70;;
34767;SDS011;21755;43.608;1.236;2024-02-23T13:32:59;1.95;;;0.50;;
34767;SDS011;21755;43.608;1.236;2024-02-23T13:35:26;0.77;;;0.30;;
34767;SDS011;21755;43.608;1.236;2024-02-23T13:37:52;1.50;;;0.25;;
34767;SDS011;21755;43.608;1.236;2024-02-23T13:40:18;5.40;;;0.57;;
34767;SDS011;21755;43.608;1.236;2024-02-23T13:42:44;4.40;;;0.43;;
34767;SDS011;21755;43.608;1.236;2024-02-23T13:45:18;6.15;;;2.30;;
34767;SDS011;21755;43.608;1.236;2024-02-23T13:47:55;3.00;;;0.25;;
34767;SDS011;21755;43.608;1.236;2024-02-23T13:50:22;2.83;;;0.50;;
34767;SDS011;21755;43.608;1.236;2024-02-23T13:52:48;3.05;;;0.40;;
34767;SDS011;21755;43.608;1.236;2024-02-23T13:55:13;4.55;;;0.80;;
34767;SDS011;21755;43.608;1.236;2024-02-23T13:57:39;2.45;;;0.50;;
34767;SDS011;21755;43.608;1.236;2024-02-23T14:00:05;1.77;;;0.60;;
34767;SDS011;21755;43.608;1.236;2024-02-23T14:02:37;0.87;;;0.30;;
34767;SDS011;21755;43.608;1.236;2024-02-23T14:05:06;4.47;;;0.40;;
34767;SDS011;21755;43.608;1.236;2024-02-23T14:07:32;1.70;;;0.40;;
34767;SDS011;21755;43.608;1.236;2024-02-23T14:09:58;1.08;;;0.40;;
34767;SDS011;21755;43.608;1.236;2024-02-23T14:12:24;4.00;;;0.57;;
34767;SDS011;21755;43.608;1.236;2024-02-23T14:14:51;0.65;;;0.40;;
34767;SDS011;21755;43.608;1.236;2024-02-23T14:17:16;2.15;;;0.30;;
34767;SDS011;21755;43.608;1.236;2024-02-23T14:19:42;0.65;;;0.43;;
34767;SDS011;21755;43.608;1.236;2024-02-23T14:22:08;2.88;;;0.70;;
34767;SDS011;21755;43.608;1.236;2024-02-23T14:24:34;3.40;;;0.35;;
34767;SDS011;21755;43.608;1.236;2024-02-23T14:27:00;1.23;;;0.38;;
34767;SDS011;21755;43.608;1.236;2024-02-23T14:29:26;1.15;;;0.22;;
34767;SDS011;21755;43.608;1.236;2024-02-23T14:31:52;1.63;;;0.35;;
34767;SDS011;21755;43.608;1.236;2024-02-23T14:34:18;1.02;;;0.32;;
34767;SDS011;21755;43.608;1.236;2024-02-23T14:36:46;2.03;;;0.40;;
34767;SDS011;21755;43.608;1.236;2024-02-23T14:39:12;2.65;;;0.75;;
34767;SDS011;21755;43.608;1.236;2024-02-23T14:41:38;2.08;;;0.30;;
34767;SDS011;21755;43.608;1.236;2024-02-23T14:44:04;1.27;;;0.50;;